sensor_id;sensor_type;location;lat;lon;timestamp;temperature;humidity
30893;DHT22;17595;50.884;4.346;2022-08-11T00:00:04;23.80;96.90
30893;DHT22;17595;50.884;4.346;2022-08-11T00:02:39;23.70;96.70
30893;DHT22;17595;50.884;4.346;2022-08-11T00:05:08;23.70;97.10
30893;DHT22;17595;50.884;4.346;2022-08-11T00:07:59;23.70;96.90
30893;DHT22;17595;50.884;4.346;2022-08-11T00:10:28;23.60;97.00
30893;DHT22;17595;50.884;4.346;2022-08-11T00:12:57;23.60;97.10
30893;DHT22;17595;50.884;4.346;2022-08-11T00:15:25;23.60;97.20
30893;DHT22;17595;50.884;4.346;2022-08-11T00:18:00;23.60;97.30
30893;DHT22;17595;50.884;4.346;2022-08-11T00:20:31;23.50;97.20
30893;DHT22;17595;50.884;4.346;2022-08-11T00:23:09;23.50;97.20
30893;DHT22;17595;50.884;4.346;2022-08-11T00:25:50;23.50;97.30
30893;DHT22;17595;50.884;4.346;2022-08-11T00:28:31;23.50;97.50
30893;DHT22;17595;50.884;4.346;2022-08-11T00:31:02;23.40;97.20
30893;DHT22;17595;50.884;4.346;2022-08-11T00:33:42;23.40;97.40
30893;DHT22;17595;50.884;4.346;2022-08-11T00:36:09;23.40;97.50
30893;DHT22;17595;50.884;4.346;2022-08-11T00:38:38;23.40;97.40
30893;DHT22;17595;50.884;4.346;2022-08-11T00:41:27;23.40;97.40
30893;DHT22;17595;50.884;4.346;2022-08-11T00:44:11;23.30;97.40
30893;DHT22;17595;50.884;4.346;2022-08-11T01:00:41;23.10;97.90
30893;DHT22;17595;50.884;4.346;2022-08-11T01:12:03;23.00;98.10
30893;DHT22;17595;50.884;4.346;2022-08-11T01:45:06;22.80;98.50
30893;DHT22;17595;50.884;4.346;2022-08-11T01:48:38;22.70;98.60
30893;DHT22;17595;50.884;4.346;2022-08-11T02:01:53;22.70;99.20
30893;DHT22;17595;50.884;4.346;2022-08-11T02:09:56;22.60;99.00
30893;DHT22;17595;50.884;4.346;2022-08-11T02:12:50;22.60;99.00
30893;DHT22;17595;50.884;4.346;2022-08-11T02:17:59;22.50;99.00
30893;DHT22;17595;50.884;4.346;2022-08-11T02:20:35;22.50;99.00
30893;DHT22;17595;50.884;4.346;2022-08-11T02:23:28;22.50;99.10
30893;DHT22;17595;50.884;4.346;2022-08-11T02:26:24;22.50;99.10
30893;DHT22;17595;50.884;4.346;2022-08-11T02:29:04;22.40;99.40
30893;DHT22;17595;50.884;4.346;2022-08-11T02:42:48;22.40;99.40
30893;DHT22;17595;50.884;4.346;2022-08-11T02:45:39;22.30;99.40
30893;DHT22;17595;50.884;4.346;2022-08-11T03:00:03;22.20;99.70
30893;DHT22;17595;50.884;4.346;2022-08-11T03:11:44;22.10;99.90
30893;DHT22;17595;50.884;4.346;2022-08-11T03:19:48;22.00;99.90
30893;DHT22;17595;50.884;4.346;2022-08-11T03:25:19;21.90;99.90
30893;DHT22;17595;50.884;4.346;2022-08-11T03:28:25;21.90;99.90
30893;DHT22;17595;50.884;4.346;2022-08-11T03:36:53;21.90;99.90
30893;DHT22;17595;50.884;4.346;2022-08-11T03:42:42;21.80;99.90
30893;DHT22;17595;50.884;4.346;2022-08-11T04:25:24;21.50;99.90
30893;DHT22;17595;50.884;4.346;2022-08-11T04:36:56;21.40;99.90
30893;DHT22;17595;50.884;4.346;2022-08-11T04:46:07;21.40;99.90
30893;DHT22;17595;50.884;4.346;2022-08-11T04:48:52;21.40;99.90
30893;DHT22;17595;50.884;4.346;2022-08-11T05:04:15;21.30;99.90
30893;DHT22;17595;50.884;4.346;2022-08-11T05:16:09;21.30;99.90
30893;DHT22;17595;50.884;4.346;2022-08-11T05:18:54;21.30;99.90
30893;DHT22;17595;50.884;4.346;2022-08-11T05:21:41;21.30;99.90
30893;DHT22;17595;50.884;4.346;2022-08-11T05:24:36;21.30;99.90
30893;DHT22;17595;50.884;4.346;2022-08-11T05:27:34;21.30;99.90
30893;DHT22;17595;50.884;4.346;2022-08-11T05:30:26;21.30;99.90
30893;DHT22;17595;50.884;4.346;2022-08-11T05:33:19;21.30;99.90
30893;DHT22;17595;50.884;4.346;2022-08-11T05:39:02;21.40;99.90
30893;DHT22;17595;50.884;4.346;2022-08-11T05:41:48;21.40;99.90
30893;DHT22;17595;50.884;4.346;2022-08-11T05:44:34;21.40;99.90
30893;DHT22;17595;50.884;4.346;2022-08-11T05:47:23;21.40;99.90
30893;DHT22;17595;50.884;4.346;2022-08-11T05:50:13;21.50;99.90
30893;DHT22;17595;50.884;4.346;2022-08-11T05:53:00;21.50;99.90
30893;DHT22;17595;50.884;4.346;2022-08-11T05:55:45;21.60;99.90
30893;DHT22;17595;50.884;4.346;2022-08-11T05:58:35;21.50;99.90
30893;DHT22;17595;50.884;4.346;2022-08-11T06:01:01;21.50;99.90
30893;DHT22;17595;50.884;4.346;2022-08-11T06:03:28;21.50;99.90
30893;DHT22;17595;50.884;4.346;2022-08-11T06:05:55;21.60;99.90
30893;DHT22;17595;50.884;4.346;2022-08-11T06:08:30;21.60;99.90
30893;DHT22;17595;50.884;4.346;2022-08-11T06:11:03;21.70;99.90
30893;DHT22;17595;50.884;4.346;2022-08-11T06:13:29;21.60;99.90
30893;DHT22;17595;50.884;4.346;2022-08-11T06:15:56;21.70;99.90
30893;DHT22;17595;50.884;4.346;2022-08-11T06:18:22;21.70;99.90
30893;DHT22;17595;50.884;4.346;2022-08-11T06:20:53;21.60;99.90
30893;DHT22;17595;50.884;4.346;2022-08-11T06:23:20;21.70;99.90
30893;DHT22;17595;50.884;4.346;2022-08-11T06:25:53;21.70;99.90
30893;DHT22;17595;50.884;4.346;2022-08-11T06:28:19;21.90;99.90
30893;DHT22;17595;50.884;4.346;2022-08-11T06:30:55;21.90;99.90
30893;DHT22;17595;50.884;4.346;2022-08-11T06:33:36;22.00;99.90
30893;DHT22;17595;50.884;4.346;2022-08-11T06:39:27;22.20;99.90
30893;DHT22;17595;50.884;4.346;2022-08-11T06:44:42;22.20;99.90
30893;DHT22;17595;50.884;4.346;2022-08-11T06:47:10;22.30;99.90
30893;DHT22;17595;50.884;4.346;2022-08-11T06:49:41;22.50;99.90
30893;DHT22;17595;50.884;4.346;2022-08-11T06:52:29;22.70;99.90
30893;DHT22;17595;50.884;4.346;2022-08-11T06:54:59;22.80;99.90
30893;DHT22;17595;50.884;4.346;2022-08-11T06:57:32;22.90;99.70
30893;DHT22;17595;50.884;4.346;2022-08-11T07:00:17;22.90;99.50
30893;DHT22;17595;50.884;4.346;2022-08-11T07:14:03;23.20;99.50
30893;DHT22;17595;50.884;4.346;2022-08-11T07:16:49;23.20;99.00
30893;DHT22;17595;50.884;4.346;2022-08-11T07:19:23;23.00;99.10
30893;DHT22;17595;50.884;4.346;2022-08-11T07:22:09;23.20;98.80
30893;DHT22;17595;50.884;4.346;2022-08-11T07:25:13;23.30;99.00
30893;DHT22;17595;50.884;4.346;2022-08-11T07:30:44;23.30;98.50
30893;DHT22;17595;50.884;4.346;2022-08-11T07:33:12;23.40;98.40
30893;DHT22;17595;50.884;4.346;2022-08-11T07:35:47;23.50;98.50
30893;DHT22;17595;50.884;4.346;2022-08-11T07:38:19;23.60;98.20
30893;DHT22;17595;50.884;4.346;2022-08-11T07:40:47;23.40;98.50
30893;DHT22;17595;50.884;4.346;2022-08-11T07:43:13;23.40;98.40
30893;DHT22;17595;50.884;4.346;2022-08-11T07:45:43;23.50;98.10
30893;DHT22;17595;50.884;4.346;2022-08-11T07:48:28;23.40;98.40
30893;DHT22;17595;50.884;4.346;2022-08-11T07:51:20;23.50;98.30
30893;DHT22;17595;50.884;4.346;2022-08-11T07:54:05;23.50;98.10
30893;DHT22;17595;50.884;4.346;2022-08-11T07:56:33;23.60;98.20
30893;DHT22;17595;50.884;4.346;2022-08-11T07:58:59;23.70;98.20
30893;DHT22;17595;50.884;4.346;2022-08-11T08:01:44;23.70;97.90
30893;DHT22;17595;50.884;4.346;2022-08-11T08:04:29;23.70;97.40
30893;DHT22;17595;50.884;4.346;2022-08-11T08:07:20;23.80;97.70
30893;DHT22;17595;50.884;4.346;2022-08-11T08:10:07;23.90;97.50
30893;DHT22;17595;50.884;4.346;2022-08-11T08:12:52;23.80;97.60
30893;DHT22;17595;50.884;4.346;2022-08-11T08:15:37;23.80;97.90
30893;DHT22;17595;50.884;4.346;2022-08-11T08:18:23;23.70;97.70
30893;DHT22;17595;50.884;4.346;2022-08-11T08:20:50;23.70;98.10
30893;DHT22;17595;50.884;4.346;2022-08-11T08:23:17;24.00;97.60
30893;DHT22;17595;50.884;4.346;2022-08-11T08:25:58;24.00;97.10
30893;DHT22;17595;50.884;4.346;2022-08-11T08:28:27;23.90;97.30
30893;DHT22;17595;50.884;4.346;2022-08-11T08:30:54;24.10;97.20
30893;DHT22;17595;50.884;4.346;2022-08-11T08:33:23;24.10;96.70
30893;DHT22;17595;50.884;4.346;2022-08-11T08:35:54;24.10;96.80
30893;DHT22;17595;50.884;4.346;2022-08-11T08:38:46;24.20;96.50
30893;DHT22;17595;50.884;4.346;2022-08-11T08:41:16;24.40;96.20
30893;DHT22;17595;50.884;4.346;2022-08-11T08:43:47;24.40;96.30
30893;DHT22;17595;50.884;4.346;2022-08-11T08:46:19;24.50;95.50
30893;DHT22;17595;50.884;4.346;2022-08-11T08:48:46;24.50;95.70
30893;DHT22;17595;50.884;4.346;2022-08-11T08:51:13;24.60;95.20
30893;DHT22;17595;50.884;4.346;2022-08-11T08:54:05;24.80;95.10
30893;DHT22;17595;50.884;4.346;2022-08-11T08:56:32;24.90;94.30
30893;DHT22;17595;50.884;4.346;2022-08-11T08:59:00;24.80;94.40
30893;DHT22;17595;50.884;4.346;2022-08-11T09:01:36;24.70;94.60
30893;DHT22;17595;50.884;4.346;2022-08-11T09:04:12;24.80;94.70
30893;DHT22;17595;50.884;4.346;2022-08-11T09:06:39;24.80;94.30
30893;DHT22;17595;50.884;4.346;2022-08-11T09:09:06;25.00;94.30
30893;DHT22;17595;50.884;4.346;2022-08-11T09:11:37;25.00;94.50
30893;DHT22;17595;50.884;4.346;2022-08-11T09:14:22;25.10;94.50
30893;DHT22;17595;50.884;4.346;2022-08-11T09:16:50;25.20;94.10
30893;DHT22;17595;50.884;4.346;2022-08-11T09:19:19;25.20;94.10
30893;DHT22;17595;50.884;4.346;2022-08-11T09:21:47;25.20;94.70
30893;DHT22;17595;50.884;4.346;2022-08-11T09:24:33;25.10;93.90
30893;DHT22;17595;50.884;4.346;2022-08-11T09:27:19;25.10;93.80
30893;DHT22;17595;50.884;4.346;2022-08-11T09:29:46;25.00;92.60
30893;DHT22;17595;50.884;4.346;2022-08-11T09:32:12;25.00;92.80
30893;DHT22;17595;50.884;4.346;2022-08-11T09:34:39;25.20;92.50
30893;DHT22;17595;50.884;4.346;2022-08-11T09:37:05;25.40;92.20
30893;DHT22;17595;50.884;4.346;2022-08-11T09:39:50;25.50;92.00
30893;DHT22;17595;50.884;4.346;2022-08-11T09:42:35;25.50;92.40
30893;DHT22;17595;50.884;4.346;2022-08-11T09:45:39;25.50;92.40
30893;DHT22;17595;50.884;4.346;2022-08-11T09:48:08;25.60;92.40
30893;DHT22;17595;50.884;4.346;2022-08-11T09:50:35;25.60;92.00
30893;DHT22;17595;50.884;4.346;2022-08-11T09:53:04;25.70;92.10
30893;DHT22;17595;50.884;4.346;2022-08-11T09:55:32;25.80;92.00
30893;DHT22;17595;50.884;4.346;2022-08-11T09:57:59;25.80;91.80
30893;DHT22;17595;50.884;4.346;2022-08-11T10:00:55;25.80;92.10
30893;DHT22;17595;50.884;4.346;2022-08-11T10:03:23;25.70;92.10
30893;DHT22;17595;50.884;4.346;2022-08-11T10:06:00;25.80;92.00
30893;DHT22;17595;50.884;4.346;2022-08-11T10:08:48;26.00;91.90
30893;DHT22;17595;50.884;4.346;2022-08-11T10:11:18;26.00;91.30
30893;DHT22;17595;50.884;4.346;2022-08-11T10:13:46;26.00;91.30
30893;DHT22;17595;50.884;4.346;2022-08-11T10:16:34;26.10;90.90
30893;DHT22;17595;50.884;4.346;2022-08-11T10:19:03;26.20;90.70
30893;DHT22;17595;50.884;4.346;2022-08-11T10:23:58;26.20;90.30
30893;DHT22;17595;50.884;4.346;2022-08-11T10:26:42;26.30;90.90
30893;DHT22;17595;50.884;4.346;2022-08-11T10:29:20;26.30;90.40
30893;DHT22;17595;50.884;4.346;2022-08-11T10:32:05;26.30;90.80
30893;DHT22;17595;50.884;4.346;2022-08-11T10:34:50;26.30;90.20
30893;DHT22;17595;50.884;4.346;2022-08-11T10:37:19;26.30;90.40
30893;DHT22;17595;50.884;4.346;2022-08-11T10:39:47;26.50;90.80
30893;DHT22;17595;50.884;4.346;2022-08-11T10:42:14;26.60;90.30
30893;DHT22;17595;50.884;4.346;2022-08-11T10:45:00;26.80;90.10
30893;DHT22;17595;50.884;4.346;2022-08-11T10:47:27;26.50;90.00
30893;DHT22;17595;50.884;4.346;2022-08-11T10:50:07;26.50;90.20
30893;DHT22;17595;50.884;4.346;2022-08-11T10:52:52;26.70;90.10
30893;DHT22;17595;50.884;4.346;2022-08-11T10:55:37;26.80;87.50
30893;DHT22;17595;50.884;4.346;2022-08-11T10:58:22;26.80;88.20
30893;DHT22;17595;50.884;4.346;2022-08-11T11:01:10;26.80;88.50
30893;DHT22;17595;50.884;4.346;2022-08-11T11:03:37;26.90;88.40
30893;DHT22;17595;50.884;4.346;2022-08-11T11:06:22;26.80;88.70
30893;DHT22;17595;50.884;4.346;2022-08-11T11:08:55;26.90;89.20
30893;DHT22;17595;50.884;4.346;2022-08-11T11:11:24;26.90;89.40
30893;DHT22;17595;50.884;4.346;2022-08-11T11:14:18;27.00;89.60
30893;DHT22;17595;50.884;4.346;2022-08-11T11:17:05;27.00;88.10
30893;DHT22;17595;50.884;4.346;2022-08-11T11:19:40;27.00;87.40
30893;DHT22;17595;50.884;4.346;2022-08-11T11:22:08;27.00;87.90
30893;DHT22;17595;50.884;4.346;2022-08-11T11:25:21;27.10;89.00
30893;DHT22;17595;50.884;4.346;2022-08-11T11:28:13;27.30;87.90
30893;DHT22;17595;50.884;4.346;2022-08-11T11:34:06;27.20;87.90
30893;DHT22;17595;50.884;4.346;2022-08-11T11:36:50;27.20;87.00
30893;DHT22;17595;50.884;4.346;2022-08-11T11:39:20;27.20;87.20
30893;DHT22;17595;50.884;4.346;2022-08-11T11:41:48;27.40;87.00
30893;DHT22;17595;50.884;4.346;2022-08-11T11:44:16;27.40;86.10
30893;DHT22;17595;50.884;4.346;2022-08-11T11:46:44;27.40;87.20
30893;DHT22;17595;50.884;4.346;2022-08-11T11:49:10;27.30;88.50
30893;DHT22;17595;50.884;4.346;2022-08-11T11:51:37;27.60;86.20
30893;DHT22;17595;50.884;4.346;2022-08-11T11:54:04;27.70;84.30
30893;DHT22;17595;50.884;4.346;2022-08-11T11:56:30;27.60;84.90
30893;DHT22;17595;50.884;4.346;2022-08-11T11:58:57;27.70;85.50
30893;DHT22;17595;50.884;4.346;2022-08-11T12:01:42;27.60;85.80
30893;DHT22;17595;50.884;4.346;2022-08-11T12:04:10;27.60;87.00
30893;DHT22;17595;50.884;4.346;2022-08-11T12:06:37;27.40;86.40
30893;DHT22;17595;50.884;4.346;2022-08-11T12:09:03;27.30;85.80
30893;DHT22;17595;50.884;4.346;2022-08-11T12:11:30;27.50;86.50
30893;DHT22;17595;50.884;4.346;2022-08-11T12:14:19;27.60;87.10
30893;DHT22;17595;50.884;4.346;2022-08-11T12:16:46;27.50;86.20
30893;DHT22;17595;50.884;4.346;2022-08-11T12:19:17;27.50;85.10
30893;DHT22;17595;50.884;4.346;2022-08-11T12:21:46;27.70;85.30
30893;DHT22;17595;50.884;4.346;2022-08-11T12:24:33;28.00;85.00
30893;DHT22;17595;50.884;4.346;2022-08-11T12:27:19;28.20;83.20
30893;DHT22;17595;50.884;4.346;2022-08-11T12:29:54;28.30;81.30
30893;DHT22;17595;50.884;4.346;2022-08-11T12:32:26;28.00;81.60
30893;DHT22;17595;50.884;4.346;2022-08-11T12:34:52;27.90;83.60
30893;DHT22;17595;50.884;4.346;2022-08-11T12:37:23;28.10;82.60
30893;DHT22;17595;50.884;4.346;2022-08-11T12:39:58;27.90;83.10
30893;DHT22;17595;50.884;4.346;2022-08-11T12:42:44;28.10;81.80
30893;DHT22;17595;50.884;4.346;2022-08-11T12:45:29;28.10;81.70
30893;DHT22;17595;50.884;4.346;2022-08-11T12:50:44;28.20;80.50
30893;DHT22;17595;50.884;4.346;2022-08-11T12:53:31;28.30;80.20
30893;DHT22;17595;50.884;4.346;2022-08-11T12:56:03;28.00;79.30
30893;DHT22;17595;50.884;4.346;2022-08-11T12:58:48;28.00;79.20
30893;DHT22;17595;50.884;4.346;2022-08-11T13:01:16;28.00;78.00
30893;DHT22;17595;50.884;4.346;2022-08-11T13:04:00;28.10;78.90
30893;DHT22;17595;50.884;4.346;2022-08-11T13:06:46;28.30;78.50
30893;DHT22;17595;50.884;4.346;2022-08-11T13:09:12;28.10;78.70
30893;DHT22;17595;50.884;4.346;2022-08-11T13:11:39;28.20;76.00
30893;DHT22;17595;50.884;4.346;2022-08-11T13:14:25;28.30;77.90
30893;DHT22;17595;50.884;4.346;2022-08-11T13:16:52;28.40;78.00
30893;DHT22;17595;50.884;4.346;2022-08-11T13:19:37;28.60;78.30
30893;DHT22;17595;50.884;4.346;2022-08-11T13:22:02;28.70;77.70
30893;DHT22;17595;50.884;4.346;2022-08-11T13:24:30;28.80;76.50
30893;DHT22;17595;50.884;4.346;2022-08-11T13:26:58;28.50;76.20
30893;DHT22;17595;50.884;4.346;2022-08-11T13:29:25;28.40;76.40
30893;DHT22;17595;50.884;4.346;2022-08-11T13:31:54;28.50;74.00
30893;DHT22;17595;50.884;4.346;2022-08-11T13:34:23;28.50;75.30
30893;DHT22;17595;50.884;4.346;2022-08-11T13:36:51;28.70;76.00
30893;DHT22;17595;50.884;4.346;2022-08-11T13:39:19;28.70;75.30
30893;DHT22;17595;50.884;4.346;2022-08-11T13:41:45;28.80;75.00
30893;DHT22;17595;50.884;4.346;2022-08-11T13:44:15;28.80;75.40
30893;DHT22;17595;50.884;4.346;2022-08-11T13:46:42;28.60;76.50
30893;DHT22;17595;50.884;4.346;2022-08-11T13:49:09;28.70;76.90
30893;DHT22;17595;50.884;4.346;2022-08-11T13:51:36;28.60;76.50
30893;DHT22;17595;50.884;4.346;2022-08-11T13:54:10;28.80;76.80
30893;DHT22;17595;50.884;4.346;2022-08-11T13:56:37;28.80;75.70
30893;DHT22;17595;50.884;4.346;2022-08-11T13:59:05;28.90;75.40
30893;DHT22;17595;50.884;4.346;2022-08-11T14:01:36;28.90;75.10
30893;DHT22;17595;50.884;4.346;2022-08-11T14:04:09;28.80;76.20
30893;DHT22;17595;50.884;4.346;2022-08-11T14:06:38;28.80;75.80
30893;DHT22;17595;50.884;4.346;2022-08-11T14:09:07;28.80;76.80
30893;DHT22;17595;50.884;4.346;2022-08-11T14:11:34;29.10;76.40
30893;DHT22;17595;50.884;4.346;2022-08-11T14:14:22;29.00;75.80
30893;DHT22;17595;50.884;4.346;2022-08-11T14:16:51;29.00;78.40
30893;DHT22;17595;50.884;4.346;2022-08-11T14:19:18;28.80;76.90
30893;DHT22;17595;50.884;4.346;2022-08-11T14:21:47;28.50;77.20
30893;DHT22;17595;50.884;4.346;2022-08-11T14:24:37;28.40;78.00
30893;DHT22;17595;50.884;4.346;2022-08-11T14:27:05;28.50;80.10
30893;DHT22;17595;50.884;4.346;2022-08-11T14:29:32;28.40;80.30
30893;DHT22;17595;50.884;4.346;2022-08-11T14:32:05;28.50;79.70
30893;DHT22;17595;50.884;4.346;2022-08-11T14:34:32;28.60;76.10
30893;DHT22;17595;50.884;4.346;2022-08-11T14:37:11;29.00;74.40
30893;DHT22;17595;50.884;4.346;2022-08-11T14:39:44;29.10;74.80
30893;DHT22;17595;50.884;4.346;2022-08-11T14:42:13;29.50;74.30
30893;DHT22;17595;50.884;4.346;2022-08-11T14:45:01;29.50;75.10
30893;DHT22;17595;50.884;4.346;2022-08-11T14:47:49;29.20;75.60
30893;DHT22;17595;50.884;4.346;2022-08-11T14:50:20;29.10;76.40
30893;DHT22;17595;50.884;4.346;2022-08-11T14:53:10;29.10;75.40
30893;DHT22;17595;50.884;4.346;2022-08-11T14:55:39;29.10;74.80
30893;DHT22;17595;50.884;4.346;2022-08-11T14:58:26;29.30;73.90
30893;DHT22;17595;50.884;4.346;2022-08-11T15:00:55;29.20;74.40
30893;DHT22;17595;50.884;4.346;2022-08-11T15:03:23;29.00;74.80
30893;DHT22;17595;50.884;4.346;2022-08-11T15:05:51;29.00;75.40
30893;DHT22;17595;50.884;4.346;2022-08-11T15:08:18;29.10;74.90
30893;DHT22;17595;50.884;4.346;2022-08-11T15:10:45;29.10;75.30
30893;DHT22;17595;50.884;4.346;2022-08-11T15:13:15;29.20;75.40
30893;DHT22;17595;50.884;4.346;2022-08-11T15:15:43;29.30;76.20
30893;DHT22;17595;50.884;4.346;2022-08-11T15:18:28;29.30;77.30
30893;DHT22;17595;50.884;4.346;2022-08-11T15:20:54;29.10;74.60
30893;DHT22;17595;50.884;4.346;2022-08-11T15:23:39;29.20;75.60
30893;DHT22;17595;50.884;4.346;2022-08-11T15:26:37;29.30;75.60
30893;DHT22;17595;50.884;4.346;2022-08-11T15:29:24;29.50;75.10
30893;DHT22;17595;50.884;4.346;2022-08-11T15:32:11;29.50;75.70
30893;DHT22;17595;50.884;4.346;2022-08-11T15:34:54;29.50;74.50
30893;DHT22;17595;50.884;4.346;2022-08-11T15:37:45;29.50;74.50
30893;DHT22;17595;50.884;4.346;2022-08-11T15:40:24;29.10;75.00
30893;DHT22;17595;50.884;4.346;2022-08-11T15:43:15;29.20;75.20
30893;DHT22;17595;50.884;4.346;2022-08-11T15:46:18;29.20;75.60
30893;DHT22;17595;50.884;4.346;2022-08-11T15:49:10;29.30;75.40
30893;DHT22;17595;50.884;4.346;2022-08-11T15:51:40;29.20;76.30
30893;DHT22;17595;50.884;4.346;2022-08-11T15:54:13;29.30;74.80
30893;DHT22;17595;50.884;4.346;2022-08-11T15:56:43;29.50;75.90
30893;DHT22;17595;50.884;4.346;2022-08-11T15:59:13;29.40;74.50
30893;DHT22;17595;50.884;4.346;2022-08-11T16:01:59;29.40;74.60
30893;DHT22;17595;50.884;4.346;2022-08-11T16:04:45;29.30;74.80
30893;DHT22;17595;50.884;4.346;2022-08-11T16:07:14;29.30;75.00
30893;DHT22;17595;50.884;4.346;2022-08-11T16:09:44;29.10;72.60
30893;DHT22;17595;50.884;4.346;2022-08-11T16:12:14;29.20;74.60
30893;DHT22;17595;50.884;4.346;2022-08-11T16:14:48;29.20;75.80
30893;DHT22;17595;50.884;4.346;2022-08-11T16:17:41;29.40;72.50
30893;DHT22;17595;50.884;4.346;2022-08-11T16:20:09;29.30;71.70
30893;DHT22;17595;50.884;4.346;2022-08-11T16:22:36;29.20;72.00
30893;DHT22;17595;50.884;4.346;2022-08-11T16:25:19;29.20;71.80
30893;DHT22;17595;50.884;4.346;2022-08-11T16:27:51;29.10;73.00
30893;DHT22;17595;50.884;4.346;2022-08-11T16:30:18;29.20;71.70
30893;DHT22;17595;50.884;4.346;2022-08-11T16:32:45;29.30;71.20
30893;DHT22;17595;50.884;4.346;2022-08-11T16:35:19;29.40;71.60
30893;DHT22;17595;50.884;4.346;2022-08-11T16:38:05;29.50;69.40
30893;DHT22;17595;50.884;4.346;2022-08-11T16:40:51;29.30;70.10
30893;DHT22;17595;50.884;4.346;2022-08-11T16:43:20;29.30;70.50
30893;DHT22;17595;50.884;4.346;2022-08-11T16:46:06;29.40;71.90
30893;DHT22;17595;50.884;4.346;2022-08-11T16:49:11;29.50;70.60
30893;DHT22;17595;50.884;4.346;2022-08-11T16:51:38;29.40;69.70
30893;DHT22;17595;50.884;4.346;2022-08-11T16:54:03;29.40;70.30
30893;DHT22;17595;50.884;4.346;2022-08-11T16:59:06;29.50;69.30
30893;DHT22;17595;50.884;4.346;2022-08-11T17:04:19;29.40;68.90
30893;DHT22;17595;50.884;4.346;2022-08-11T17:07:06;29.50;68.20
30893;DHT22;17595;50.884;4.346;2022-08-11T17:09:51;29.50;68.70
30893;DHT22;17595;50.884;4.346;2022-08-11T17:12:37;29.50;69.40
30893;DHT22;17595;50.884;4.346;2022-08-11T17:15:22;29.40;70.20
30893;DHT22;17595;50.884;4.346;2022-08-11T17:18:09;29.30;69.90
30893;DHT22;17595;50.884;4.346;2022-08-11T17:20:37;29.30;70.50
30893;DHT22;17595;50.884;4.346;2022-08-11T17:23:05;29.30;71.40
30893;DHT22;17595;50.884;4.346;2022-08-11T17:25:51;29.30;68.60
30893;DHT22;17595;50.884;4.346;2022-08-11T17:28:19;29.40;69.00
30893;DHT22;17595;50.884;4.346;2022-08-11T17:30:46;29.40;69.70
30893;DHT22;17595;50.884;4.346;2022-08-11T17:33:32;29.60;68.90
30893;DHT22;17595;50.884;4.346;2022-08-11T17:36:18;29.60;69.60
30893;DHT22;17595;50.884;4.346;2022-08-11T17:38:44;29.90;69.50
30893;DHT22;17595;50.884;4.346;2022-08-11T17:41:12;30.10;68.20
30893;DHT22;17595;50.884;4.346;2022-08-11T17:43:59;30.50;67.50
30893;DHT22;17595;50.884;4.346;2022-08-11T17:46:44;31.00;67.00
30893;DHT22;17595;50.884;4.346;2022-08-11T17:49:36;31.00;65.40
30893;DHT22;17595;50.884;4.346;2022-08-11T17:52:04;31.20;66.00
30893;DHT22;17595;50.884;4.346;2022-08-11T17:54:50;31.10;65.80
30893;DHT22;17595;50.884;4.346;2022-08-11T17:57:38;31.10;65.80
30893;DHT22;17595;50.884;4.346;2022-08-11T18:00:23;30.50;66.00
30893;DHT22;17595;50.884;4.346;2022-08-11T18:02:50;30.40;66.60
30893;DHT22;17595;50.884;4.346;2022-08-11T18:05:36;30.20;67.00
30893;DHT22;17595;50.884;4.346;2022-08-11T18:08:07;30.20;67.70
30893;DHT22;17595;50.884;4.346;2022-08-11T18:10:52;30.00;67.90
30893;DHT22;17595;50.884;4.346;2022-08-11T18:13:39;29.90;68.50
30893;DHT22;17595;50.884;4.346;2022-08-11T18:16:24;29.60;68.80
30893;DHT22;17595;50.884;4.346;2022-08-11T18:19:09;29.50;69.50
30893;DHT22;17595;50.884;4.346;2022-08-11T18:21:59;29.40;69.70
30893;DHT22;17595;50.884;4.346;2022-08-11T18:24:49;29.30;71.10
30893;DHT22;17595;50.884;4.346;2022-08-11T18:27:37;29.10;70.50
30893;DHT22;17595;50.884;4.346;2022-08-11T18:30:24;29.20;72.50
30893;DHT22;17595;50.884;4.346;2022-08-11T18:33:10;29.10;71.90
30893;DHT22;17595;50.884;4.346;2022-08-11T18:35:58;29.00;72.60
30893;DHT22;17595;50.884;4.346;2022-08-11T18:38:45;29.00;74.00
30893;DHT22;17595;50.884;4.346;2022-08-11T18:41:33;28.90;74.00
30893;DHT22;17595;50.884;4.346;2022-08-11T18:44:19;28.70;73.30
30893;DHT22;17595;50.884;4.346;2022-08-11T18:47:08;28.70;74.10
30893;DHT22;17595;50.884;4.346;2022-08-11T18:49:54;28.60;73.70
30893;DHT22;17595;50.884;4.346;2022-08-11T18:52:44;28.40;74.10
30893;DHT22;17595;50.884;4.346;2022-08-11T18:55:30;28.40;74.20
30893;DHT22;17595;50.884;4.346;2022-08-11T18:58:20;28.30;74.50
30893;DHT22;17595;50.884;4.346;2022-08-11T19:01:07;28.30;75.20
30893;DHT22;17595;50.884;4.346;2022-08-11T19:03:52;28.30;76.00
30893;DHT22;17595;50.884;4.346;2022-08-11T19:06:40;28.20;75.80
30893;DHT22;17595;50.884;4.346;2022-08-11T19:09:25;28.20;76.70
30893;DHT22;17595;50.884;4.346;2022-08-11T19:12:10;28.10;77.00
30893;DHT22;17595;50.884;4.346;2022-08-11T19:14:55;28.00;76.80
30893;DHT22;17595;50.884;4.346;2022-08-11T19:17:43;27.90;77.20
30893;DHT22;17595;50.884;4.346;2022-08-11T19:20:29;27.80;78.20
30893;DHT22;17595;50.884;4.346;2022-08-11T19:23:23;27.80;78.30
30893;DHT22;17595;50.884;4.346;2022-08-11T19:26:08;27.80;78.50
30893;DHT22;17595;50.884;4.346;2022-08-11T19:28:54;27.70;79.10
30893;DHT22;17595;50.884;4.346;2022-08-11T19:31:39;27.70;79.70
30893;DHT22;17595;50.884;4.346;2022-08-11T19:34:25;27.50;79.20
30893;DHT22;17595;50.884;4.346;2022-08-11T19:37:10;27.50;79.90
30893;DHT22;17595;50.884;4.346;2022-08-11T19:40:07;27.40;80.10
30893;DHT22;17595;50.884;4.346;2022-08-11T19:42:51;27.40;80.80
30893;DHT22;17595;50.884;4.346;2022-08-11T19:45:37;27.30;81.10
30893;DHT22;17595;50.884;4.346;2022-08-11T19:48:22;27.20;81.30
30893;DHT22;17595;50.884;4.346;2022-08-11T19:51:08;27.20;81.80
30893;DHT22;17595;50.884;4.346;2022-08-11T19:53:53;27.10;82.00
30893;DHT22;17595;50.884;4.346;2022-08-11T19:56:38;27.00;80.40
30893;DHT22;17595;50.884;4.346;2022-08-11T19:59:23;27.00;82.80
30893;DHT22;17595;50.884;4.346;2022-08-11T20:02:08;27.00;82.40
30893;DHT22;17595;50.884;4.346;2022-08-11T20:04:53;27.00;82.40
30893;DHT22;17595;50.884;4.346;2022-08-11T20:07:37;26.90;82.70
30893;DHT22;17595;50.884;4.346;2022-08-11T20:10:22;26.90;83.00
30893;DHT22;17595;50.884;4.346;2022-08-11T20:13:08;26.80;83.60
30893;DHT22;17595;50.884;4.346;2022-08-11T20:15:54;26.80;83.40
30893;DHT22;17595;50.884;4.346;2022-08-11T20:18:41;26.70;83.30
30893;DHT22;17595;50.884;4.346;2022-08-11T20:21:25;26.70;83.70
30893;DHT22;17595;50.884;4.346;2022-08-11T20:24:10;26.60;84.30
30893;DHT22;17595;50.884;4.346;2022-08-11T20:26:56;26.60;85.00
30893;DHT22;17595;50.884;4.346;2022-08-11T20:29:42;26.60;84.40
30893;DHT22;17595;50.884;4.346;2022-08-11T20:32:27;26.60;84.60